sensor_id;sensor_type;location;lat;lon;timestamp;pressure;altitude;pressure_sealevel;temperature;humidity
29903;BME280;30288;50.514;9.678;2023-11-22T00:01:03;99365.13;;;0.85;100.00
29903;BME280;30288;50.514;9.678;2023-11-22T00:03:09;99363.47;;;0.87;100.00
29903;BME280;30288;50.514;9.678;2023-11-22T00:05:14;99364.91;;;0.76;100.00
29903;BME280;30288;50.514;9.678;2023-11-22T00:07:19;99366.56;;;0.77;100.00
29903;BME280;30288;50.514;9.678;2023-11-22T00:09:25;99359.84;;;0.70;100.00
29903;BME280;30288;50.514;9.678;2023-11-22T00:11:29;99368.06;;;0.69;100.00
29903;BME280;30288;50.514;9.678;2023-11-22T00:13:35;99353.94;;;0.65;100.00
29903;BME280;30288;50.514;9.678;2023-11-22T00:15:43;99359.75;;;0.67;100.00
29903;BME280;30288;50.514;9.678;2023-11-22T00:17:49;99361.38;;;0.65;100.00
29903;BME280;30288;50.514;9.678;2023-11-22T00:19:55;99371.16;;;0.59;100.00
29903;BME280;30288;50.514;9.678;2023-11-22T00:22:01;99370.94;;;0.50;100.00
29903;BME280;30288;50.514;9.678;2023-11-22T00:24:14;99379.84;;;0.42;100.00
29903;BME280;30288;50.514;9.678;2023-11-22T00:26:21;99387.13;;;0.36;100.00
29903;BME280;30288;50.514;9.678;2023-11-22T00:28:31;99387.94;;;0.35;100.00
29903;BME280;30288;50.514;9.678;2023-11-22T00:30:37;99384.66;;;0.36;100.00
29903;BME280;30288;50.514;9.678;2023-11-22T00:32:45;99383.81;;;0.35;100.00
29903;BME280;30288;50.514;9.678;2023-11-22T00:34:51;99387.13;;;0.36;100.00
29903;BME280;30288;50.514;9.678;2023-11-22T00:36:57;99388.13;;;0.42;100.00
29903;BME280;30288;50.514;9.678;2023-11-22T00:39:00;99402.28;;;0.48;100.00
29903;BME280;30288;50.514;9.678;2023-11-22T00:41:06;99405.47;;;0.44;100.00
29903;BME280;30288;50.514;9.678;2023-11-22T00:43:13;99409.69;;;0.47;100.00
29903;BME280;30288;50.514;9.678;2023-11-22T00:45:18;99417.00;;;0.42;100.00
29903;BME280;30288;50.514;9.678;2023-11-22T00:47:24;99430.19;;;0.41;100.00
29903;BME280;30288;50.514;9.678;2023-11-22T00:49:33;99431.72;;;0.36;100.00
29903;BME280;30288;50.514;9.678;2023-11-22T00:51:38;99433.41;;;0.37;100.00
29903;BME280;30288;50.514;9.678;2023-11-22T00:53:44;99445.06;;;0.41;100.00
29903;BME280;30288;50.514;9.678;2023-11-22T00:55:50;99446.00;;;0.46;100.00
29903;BME280;30288;50.514;9.678;2023-11-22T00:57:56;99442.13;;;0.57;100.00
29903;BME280;30288;50.514;9.678;2023-11-22T01:00:08;99447.06;;;0.57;100.00
29903;BME280;30288;50.514;9.678;2023-11-22T01:02:15;99450.44;;;0.59;100.00
29903;BME280;30288;50.514;9.678;2023-11-22T01:04:20;99457.94;;;0.62;100.00
29903;BME280;30288;50.514;9.678;2023-11-22T01:06:29;99460.34;;;0.59;100.00
29903;BME280;30288;50.514;9.678;2023-11-22T01:08:34;99459.47;;;0.57;100.00
29903;BME280;30288;50.514;9.678;2023-11-22T01:10:40;99463.41;;;0.49;100.00
29903;BME280;30288;50.514;9.678;2023-11-22T01:12:45;99467.56;;;0.50;100.00
29903;BME280;30288;50.514;9.678;2023-11-22T01:14:50;99464.09;;;0.43;100.00
29903;BME280;30288;50.514;9.678;2023-11-22T01:16:53;99464.94;;;0.44;100.00
29903;BME280;30288;50.514;9.678;2023-11-22T01:18:59;99465.75;;;0.43;100.00
29903;BME280;30288;50.514;9.678;2023-11-22T01:21:06;99468.94;;;0.39;100.00
29903;BME280;30288;50.514;9.678;2023-11-22T01:23:14;99474.13;;;0.48;100.00
29903;BME280;30288;50.514;9.678;2023-11-22T01:25:19;99470.94;;;0.52;100.00
29903;BME280;30288;50.514;9.678;2023-11-22T01:27:25;99471.75;;;0.51;100.00
29903;BME280;30288;50.514;9.678;2023-11-22T01:29:30;99469.91;;;0.44;100.00
29903;BME280;30288;50.514;9.678;2023-11-22T01:31:37;99470.06;;;0.50;100.00
29903;BME280;30288;50.514;9.678;2023-11-22T01:33:41;99465.94;;;0.51;100.00
29903;BME280;30288;50.514;9.678;2023-11-22T01:35:47;99470.81;;;0.48;100.00
29903;BME280;30288;50.514;9.678;2023-11-22T01:37:52;99473.03;;;0.37;100.00
29903;BME280;30288;50.514;9.678;2023-11-22T01:40:01;99473.84;;;0.36;100.00
29903;BME280;30288;50.514;9.678;2023-11-22T01:42:07;99474.41;;;0.26;100.00
29903;BME280;30288;50.514;9.678;2023-11-22T01:44:12;99482.41;;;0.16;100.00
29903;BME280;30288;50.514;9.678;2023-11-22T01:46:22;99472.94;;;-0.01;100.00
29903;BME280;30288;50.514;9.678;2023-11-22T01:48:30;99475.41;;;-0.01;100.00
29903;BME280;30288;50.514;9.678;2023-11-22T01:50:38;99474.22;;;-0.13;100.00
29903;BME280;30288;50.514;9.678;2023-11-22T01:52:44;99484.00;;;-0.18;100.00
29903;BME280;30288;50.514;9.678;2023-11-22T01:54:50;99486.66;;;-0.12;100.00
29903;BME280;30288;50.514;9.678;2023-11-22T01:56:58;99483.63;;;-0.02;100.00
29903;BME280;30288;50.514;9.678;2023-11-22T01:59:05;99491.41;;;0.12;100.00
29903;BME280;30288;50.514;9.678;2023-11-22T02:01:12;99497.19;;;0.13;100.00
29903;BME280;30288;50.514;9.678;2023-11-22T02:03:18;99500.53;;;0.15;100.00
29903;BME280;30288;50.514;9.678;2023-11-22T02:05:24;99508.69;;;0.11;100.00
29903;BME280;30288;50.514;9.678;2023-11-22T02:07:30;99502.06;;;0.10;100.00
29903;BME280;30288;50.514;9.678;2023-11-22T02:09:35;99494.00;;;0.17;100.00
29903;BME280;30288;50.514;9.678;2023-11-22T02:11:40;99493.28;;;0.21;100.00
29903;BME280;30288;50.514;9.678;2023-11-22T02:13:47;99504.06;;;0.23;100.00
29903;BME280;30288;50.514;9.678;2023-11-22T02:15:52;99513.97;;;0.23;100.00
29903;BME280;30288;50.514;9.678;2023-11-22T02:17:58;99521.41;;;0.23;100.00
29903;BME280;30288;50.514;9.678;2023-11-22T02:20:14;99518.81;;;0.20;100.00
29903;BME280;30288;50.514;9.678;2023-11-22T02:22:19;99530.41;;;0.21;100.00
29903;BME280;30288;50.514;9.678;2023-11-22T02:24:25;99525.31;;;0.15;100.00
29903;BME280;30288;50.514;9.678;2023-11-22T02:26:30;99521.41;;;0.23;100.00
29903;BME280;30288;50.514;9.678;2023-11-22T02:28:35;99520.47;;;0.19;100.00
29903;BME280;30288;50.514;9.678;2023-11-22T02:30:41;99528.44;;;0.08;100.00
29903;BME280;30288;50.514;9.678;2023-11-22T02:32:47;99525.00;;;0.03;100.00
29903;BME280;30288;50.514;9.678;2023-11-22T02:34:50;99524.16;;;0.02;100.00
29903;BME280;30288;50.514;9.678;2023-11-22T02:36:56;99528.06;;;-0.06;100.00
29903;BME280;30288;50.514;9.678;2023-11-22T02:39:05;99534.72;;;-0.04;100.00
29903;BME280;30288;50.514;9.678;2023-11-22T02:41:14;99529.69;;;-0.07;100.00
29903;BME280;30288;50.514;9.678;2023-11-22T02:43:19;99525.47;;;-0.11;100.00
29903;BME280;30288;50.514;9.678;2023-11-22T02:45:28;99519.38;;;-0.22;100.00
29903;BME280;30288;50.514;9.678;2023-11-22T02:47:33;99519.38;;;-0.22;100.00
29903;BME280;30288;50.514;9.678;2023-11-22T02:49:39;99520.09;;;-0.26;100.00
29903;BME280;30288;50.514;9.678;2023-11-22T02:51:44;99517.44;;;-0.32;100.00
29903;BME280;30288;50.514;9.678;2023-11-22T02:53:49;99522.13;;;-0.41;100.00
29903;BME280;30288;50.514;9.678;2023-11-22T02:55:55;99522.78;;;-0.48;100.00
29903;BME280;30288;50.514;9.678;2023-11-22T02:58:04;99528.13;;;-0.61;100.00
29903;BME280;30288;50.514;9.678;2023-11-22T03:00:08;99536.00;;;-0.74;100.00
29903;BME280;30288;50.514;9.678;2023-11-22T03:02:15;99544.34;;;-0.71;100.00
29903;BME280;30288;50.514;9.678;2023-11-22T03:04:21;99539.81;;;-0.57;100.00
29903;BME280;30288;50.514;9.678;2023-11-22T03:06:26;99531.13;;;-0.45;100.00
29903;BME280;30288;50.514;9.678;2023-11-22T03:08:32;99532.09;;;-0.38;100.00
29903;BME280;30288;50.514;9.678;2023-11-22T03:10:37;99539.19;;;-0.22;100.00
29903;BME280;30288;50.514;9.678;2023-11-22T03:12:43;99532.78;;;-0.14;100.00
29903;BME280;30288;50.514;9.678;2023-11-22T03:14:51;99527.06;;;-0.13;100.00
29903;BME280;30288;50.514;9.678;2023-11-22T03:16:56;99539.59;;;-0.07;100.00
29903;BME280;30288;50.514;9.678;2023-11-22T03:19:01;99539.59;;;-0.07;100.00
29903;BME280;30288;50.514;9.678;2023-11-22T03:21:06;99541.47;;;0.02;100.00
29903;BME280;30288;50.514;9.678;2023-11-22T03:23:12;99536.34;;;-0.06;100.00
29903;BME280;30288;50.514;9.678;2023-11-22T03:25:16;99526.50;;;-0.03;100.00
29903;BME280;30288;50.514;9.678;2023-11-22T03:27:21;99536.22;;;-0.09;100.00
29903;BME280;30288;50.514;9.678;2023-11-22T03:29:26;99532.22;;;-0.05;100.00
29903;BME280;30288;50.514;9.678;2023-11-22T03:31:35;99537.38;;;0.03;100.00
29903;BME280;30288;50.514;9.678;2023-11-22T03:33:41;99544.88;;;0.06;100.00
29903;BME280;30288;50.514;9.678;2023-11-22T03:35:46;99545.09;;;0.15;100.00
29903;BME280;30288;50.514;9.678;2023-11-22T03:37:52;99544.59;;;0.26;100.00
29903;BME280;30288;50.514;9.678;2023-11-22T03:39:57;99548.75;;;0.27;100.00
29903;BME280;30288;50.514;9.678;2023-11-22T03:42:04;99552.28;;;0.35;100.00
29903;BME280;30288;50.514;9.678;2023-11-22T03:44:11;99554.00;;;0.38;100.00
29903;BME280;30288;50.514;9.678;2023-11-22T03:46:17;99554.06;;;0.41;100.00
29903;BME280;30288;50.514;9.678;2023-11-22T03:48:25;99559.25;;;0.50;100.00
29903;BME280;30288;50.514;9.678;2023-11-22T03:50:31;99562.66;;;0.54;100.00
29903;BME280;30288;50.514;9.678;2023-11-22T03:52:38;99564.38;;;0.56;100.00
29903;BME280;30288;50.514;9.678;2023-11-22T03:54:43;99572.75;;;0.61;100.00
29903;BME280;30288;50.514;9.678;2023-11-22T03:56:49;99573.84;;;0.71;100.00
29903;BME280;30288;50.514;9.678;2023-11-22T03:58:54;99582.09;;;0.71;100.00
29903;BME280;30288;50.514;9.678;2023-11-22T04:01:00;99578.84;;;0.74;100.00
29903;BME280;30288;50.514;9.678;2023-11-22T04:03:06;99584.00;;;0.81;100.00
29903;BME280;30288;50.514;9.678;2023-11-22T04:05:14;99589.91;;;0.86;100.00
29903;BME280;30288;50.514;9.678;2023-11-22T04:07:19;99598.00;;;0.79;100.00
29903;BME280;30288;50.514;9.678;2023-11-22T04:09:26;99598.97;;;0.86;100.00
29903;BME280;30288;50.514;9.678;2023-11-22T04:11:32;99601.50;;;0.87;100.00
29903;BME280;30288;50.514;9.678;2023-11-22T04:13:37;99608.09;;;0.85;100.00
29903;BME280;30288;50.514;9.678;2023-11-22T04:15:43;99611.34;;;0.84;100.00
29903;BME280;30288;50.514;9.678;2023-11-22T04:17:49;99619.44;;;0.77;100.00
29903;BME280;30288;50.514;9.678;2023-11-22T04:19:58;99620.38;;;0.82;100.00
29903;BME280;30288;50.514;9.678;2023-11-22T04:22:06;99622.25;;;0.91;100.00
29903;BME280;30288;50.514;9.678;2023-11-22T04:24:13;99625.66;;;0.95;100.00
29903;BME280;30288;50.514;9.678;2023-11-22T04:26:15;99630.63;;;0.96;100.00
29903;BME280;30288;50.514;9.678;2023-11-22T04:28:23;99630.81;;;1.02;100.00
29903;BME280;30288;50.514;9.678;2023-11-22T04:30:29;99630.84;;;1.04;100.00
29903;BME280;30288;50.514;9.678;2023-11-22T04:32:35;99621.78;;;1.06;100.00
29903;BME280;30288;50.514;9.678;2023-11-22T04:34:40;99630.03;;;1.05;100.00
29903;BME280;30288;50.514;9.678;2023-11-22T04:36:45;99634.97;;;1.05;100.00
29903;BME280;30288;50.514;9.678;2023-11-22T04:38:54;99641.72;;;1.09;100.00
29903;BME280;30288;50.514;9.678;2023-11-22T04:40:59;99641.63;;;1.06;100.00
29903;BME280;30288;50.514;9.678;2023-11-22T04:43:05;99638.34;;;1.07;100.00
29903;BME280;30288;50.514;9.678;2023-11-22T04:45:10;99636.75;;;1.09;100.00
29903;BME280;30288;50.514;9.678;2023-11-22T04:47:13;99639.25;;;1.09;100.00
29903;BME280;30288;50.514;9.678;2023-11-22T04:49:18;99643.25;;;1.05;100.00
29903;BME280;30288;50.514;9.678;2023-11-22T04:51:23;99647.38;;;1.05;100.00
29903;BME280;30288;50.514;9.678;2023-11-22T04:53:31;99647.47;;;1.08;100.00
29903;BME280;30288;50.514;9.678;2023-11-22T04:55:39;99653.28;;;1.10;100.00
29903;BME280;30288;50.514;9.678;2023-11-22T04:57:45;99654.91;;;1.08;100.00
29903;BME280;30288;50.514;9.678;2023-11-22T04:59:51;99658.25;;;1.10;100.00
29903;BME280;30288;50.514;9.678;2023-11-22T05:01:57;99654.97;;;1.11;100.00
29903;BME280;30288;50.514;9.678;2023-11-22T05:04:03;99658.31;;;1.11;100.00
29903;BME280;30288;50.514;9.678;2023-11-22T05:06:09;99664.03;;;1.09;100.00
29903;BME280;30288;50.514;9.678;2023-11-22T05:08:14;99661.41;;;1.03;100.00
29903;BME280;30288;50.514;9.678;2023-11-22T05:10:19;99656.66;;;1.12;100.00
29903;BME280;30288;50.514;9.678;2023-11-22T05:12:27;99665.00;;;1.14;100.00
29903;BME280;30288;50.514;9.678;2023-11-22T05:14:32;99673.97;;;1.10;100.00
29903;BME280;30288;50.514;9.678;2023-11-22T05:16:35;99677.28;;;1.09;100.00
29903;BME280;30288;50.514;9.678;2023-11-22T05:18:40;99674.03;;;1.12;100.00
29903;BME280;30288;50.514;9.678;2023-11-22T05:20:46;99682.25;;;1.09;100.00
29903;BME280;30288;50.514;9.678;2023-11-22T05:22:52;99689.63;;;1.08;100.00
29903;BME280;30288;50.514;9.678;2023-11-22T05:24:57;99687.88;;;1.04;100.00
29903;BME280;30288;50.514;9.678;2023-11-22T05:27:04;99693.81;;;1.09;100.00
29903;BME280;30288;50.514;9.678;2023-11-22T05:29:12;99693.81;;;1.09;100.00
29903;BME280;30288;50.514;9.678;2023-11-22T05:31:17;99693.75;;;1.07;100.00
29903;BME280;30288;50.514;9.678;2023-11-22T05:33:23;99692.91;;;1.07;100.00
29903;BME280;30288;50.514;9.678;2023-11-22T05:35:29;99696.34;;;1.12;100.00
29903;BME280;30288;50.514;9.678;2023-11-22T05:37:34;99701.31;;;1.12;100.00
29903;BME280;30288;50.514;9.678;2023-11-22T05:39:40;99692.97;;;1.10;100.00
29903;BME280;30288;50.514;9.678;2023-11-22T05:41:46;99690.38;;;1.05;100.00
29903;BME280;30288;50.514;9.678;2023-11-22T05:43:52;99692.91;;;1.07;100.00
29903;BME280;30288;50.514;9.678;2023-11-22T05:46:00;99701.31;;;1.12;100.00
29903;BME280;30288;50.514;9.678;2023-11-22T05:48:05;99703.84;;;1.13;100.00
29903;BME280;30288;50.514;9.678;2023-11-22T05:50:11;99708.03;;;1.16;100.00
29903;BME280;30288;50.514;9.678;2023-11-22T05:52:17;99708.75;;;1.12;100.00
29903;BME280;30288;50.514;9.678;2023-11-22T05:54:21;99708.72;;;1.10;100.00
29903;BME280;30288;50.514;9.678;2023-11-22T05:56:26;99709.53;;;1.09;100.00
29903;BME280;30288;50.514;9.678;2023-11-22T05:58:32;99709.38;;;1.05;100.00
29903;BME280;30288;50.514;9.678;2023-11-22T06:00:40;99714.28;;;1.02;100.00
29903;BME280;30288;50.514;9.678;2023-11-22T06:02:49;99717.66;;;1.04;100.00
29903;BME280;30288;50.514;9.678;2023-11-22T06:04:54;99712.81;;;1.10;100.00
29903;BME280;30288;50.514;9.678;2023-11-22T06:06:57;99712.75;;;1.07;100.00
29903;BME280;30288;50.514;9.678;2023-11-22T06:09:03;99714.34;;;1.05;100.00
29903;BME280;30288;50.514;9.678;2023-11-22T06:11:09;99727.56;;;1.04;100.00
29903;BME280;30288;50.514;9.678;2023-11-22T06:13:16;99729.22;;;1.05;100.00
29903;BME280;30288;50.514;9.678;2023-11-22T06:15:21;99731.84;;;1.09;100.00
29903;BME280;30288;50.514;9.678;2023-11-22T06:17:27;99736.03;;;1.12;100.00
29903;BME280;30288;50.514;9.678;2023-11-22T06:19:34;99742.59;;;1.10;100.00
29903;BME280;30288;50.514;9.678;2023-11-22T06:21:39;99744.22;;;1.08;100.00
29903;BME280;30288;50.514;9.678;2023-11-22T06:23:45;99749.16;;;1.08;100.00
29903;BME280;30288;50.514;9.678;2023-11-22T06:25:52;99748.28;;;1.06;100.00
29903;BME280;30288;50.514;9.678;2023-11-22T06:27:57;99747.47;;;1.07;100.00
29903;BME280;30288;50.514;9.678;2023-11-22T06:30:06;99750.00;;;1.08;100.00
29903;BME280;30288;50.514;9.678;2023-11-22T06:32:11;99757.41;;;1.07;100.00
29903;BME280;30288;50.514;9.678;2023-11-22T06:34:17;99755.72;;;1.06;100.00
29903;BME280;30288;50.514;9.678;2023-11-22T06:36:25;99745.91;;;1.09;100.00
29903;BME280;30288;50.514;9.678;2023-11-22T06:38:30;99742.53;;;1.07;100.00
29903;BME280;30288;50.514;9.678;2023-11-22T06:40:37;99742.53;;;1.07;100.00
29903;BME280;30288;50.514;9.678;2023-11-22T06:42:43;99740.94;;;1.09;100.00
29903;BME280;30288;50.514;9.678;2023-11-22T06:44:48;99742.53;;;1.07;100.00
29903;BME280;30288;50.514;9.678;2023-11-22T06:46:55;99748.31;;;1.07;100.00
29903;BME280;30288;50.514;9.678;2023-11-22T06:49:01;99751.59;;;1.06;100.00
29903;BME280;30288;50.514;9.678;2023-11-22T06:51:07;99765.63;;;1.06;100.00
29903;BME280;30288;50.514;9.678;2023-11-22T06:53:15;99768.91;;;1.05;100.00
29903;BME280;30288;50.514;9.678;2023-11-22T06:55:22;99772.28;;;1.07;100.00
29903;BME280;30288;50.514;9.678;2023-11-22T06:57:29;99779.00;;;1.11;100.00
29903;BME280;30288;50.514;9.678;2023-11-22T06:59:34;99778.94;;;1.08;100.00
29903;BME280;30288;50.514;9.678;2023-11-22T07:01:40;99770.69;;;1.09;100.00
29903;BME280;30288;50.514;9.678;2023-11-22T07:03:45;99776.56;;;1.12;100.00
29903;BME280;30288;50.514;9.678;2023-11-22T07:05:49;99786.44;;;1.11;100.00
29903;BME280;30288;50.514;9.678;2023-11-22T07:07:54;99796.28;;;1.08;100.00
29903;BME280;30288;50.514;9.678;2023-11-22T07:10:02;99804.66;;;1.11;100.00
29903;BME280;30288;50.514;9.678;2023-11-22T07:12:07;99802.22;;;1.13;100.00
29903;BME280;30288;50.514;9.678;2023-11-22T07:14:13;99805.56;;;1.15;100.00
29903;BME280;30288;50.514;9.678;2023-11-22T07:16:19;99807.94;;;1.10;100.00
29903;BME280;30288;50.514;9.678;2023-11-22T07:18:24;99810.38;;;1.09;100.00
29903;BME280;30288;50.514;9.678;2023-11-22T07:20:31;99820.13;;;1.03;100.00
29903;BME280;30288;50.514;9.678;2023-11-22T07:22:36;99821.81;;;1.04;100.00
29903;BME280;30288;50.514;9.678;2023-11-22T07:24:46;99834.16;;;1.02;100.00
29903;BME280;30288;50.514;9.678;2023-11-22T07:26:56;99831.63;;;1.01;100.00
29903;BME280;30288;50.514;9.678;2023-11-22T07:29:01;99829.97;;;1.00;100.00
29903;BME280;30288;50.514;9.678;2023-11-22T07:31:07;99826.59;;;0.98;100.00
29903;BME280;30288;50.514;9.678;2023-11-22T07:33:13;99824.97;;;0.98;100.00
29903;BME280;30288;50.514;9.678;2023-11-22T07:35:19;99819.88;;;0.94;100.00
29903;BME280;30288;50.514;9.678;2023-11-22T07:37:24;99827.13;;;0.87;100.00
29903;BME280;30288;50.514;9.678;2023-11-22T07:39:30;99818.84;;;0.85;100.00
29903;BME280;30288;50.514;9.678;2023-11-22T07:41:35;99818.00;;;0.86;100.00
29903;BME280;30288;50.514;9.678;2023-11-22T07:43:43;99804.81;;;0.87;100.00
29903;BME280;30288;50.514;9.678;2023-11-22T07:45:48;99802.41;;;0.89;100.00
29903;BME280;30288;50.514;9.678;2023-11-22T07:47:53;99797.59;;;0.95;100.00
29903;BME280;30288;50.514;9.678;2023-11-22T07:50:01;99809.44;;;1.05;100.00
29903;BME280;30288;50.514;9.678;2023-11-22T07:52:09;99801.88;;;1.01;100.00
29903;BME280;30288;50.514;9.678;2023-11-22T07:54:16;99806.94;;;1.04;100.00
29903;BME280;30288;50.514;9.678;2023-11-22T07:56:24;99808.44;;;0.99;100.00
29903;BME280;30288;50.514;9.678;2023-11-22T07:58:30;99813.56;;;1.05;100.00
29903;BME280;30288;50.514;9.678;2023-11-22T08:00:36;99816.09;;;1.06;100.00
29903;BME280;30288;50.514;9.678;2023-11-22T08:02:44;99821.72;;;1.01;100.00
29903;BME280;30288;50.514;9.678;2023-11-22T08:04:49;99828.28;;;0.99;100.00
29903;BME280;30288;50.514;9.678;2023-11-22T08:06:55;99831.75;;;1.05;100.00
29903;BME280;30288;50.514;9.678;2023-11-22T08:09:01;99844.94;;;1.03;100.00
29903;BME280;30288;50.514;9.678;2023-11-22T08:11:07;99848.19;;;1.02;100.00
29903;BME280;30288;50.514;9.678;2023-11-22T08:13:18;99833.56;;;1.11;100.00
29903;BME280;30288;50.514;9.678;2023-11-22T08:15:25;99828.78;;;1.17;100.00
29903;BME280;30288;50.514;9.678;2023-11-22T08:17:30;99821.41;;;1.18;100.00
29903;BME280;30288;50.514;9.678;2023-11-22T08:19:36;99817.59;;;1.31;100.00
29903;BME280;30288;50.514;9.678;2023-11-22T08:21:42;99815.91;;;1.30;100.00
29903;BME280;30288;50.514;9.678;2023-11-22T08:23:46;99812.78;;;1.37;100.00
29903;BME280;30288;50.514;9.678;2023-11-22T08:25:52;99811.78;;;1.30;100.00
29903;BME280;30288;50.514;9.678;2023-11-22T08:27:55;99811.03;;;1.33;100.00
29903;BME280;30288;50.514;9.678;2023-11-22T08:30:00;99809.66;;;1.13;100.00
29903;BME280;30288;50.514;9.678;2023-11-22T08:32:07;99805.06;;;1.26;100.00
29903;BME280;30288;50.514;9.678;2023-11-22T08:34:13;99795.13;;;1.26;100.00
29903;BME280;30288;50.514;9.678;2023-11-22T08:36:19;99799.44;;;1.32;100.00
29903;BME280;30288;50.514;9.678;2023-11-22T08:38:26;99801.91;;;1.32;100.00
29903;BME280;30288;50.514;9.678;2023-11-22T08:40:31;99804.47;;;1.35;100.00
29903;BME280;30288;50.514;9.678;2023-11-22T08:42:39;99801.19;;;1.36;100.00
29903;BME280;30288;50.514;9.678;2023-11-22T08:44:44;99809.50;;;1.38;100.00
29903;BME280;30288;50.514;9.678;2023-11-22T08:46:48;99811.19;;;1.39;100.00
29903;BME280;30288;50.514;9.678;2023-11-22T08:48:53;99809.75;;;1.47;100.00
29903;BME280;30288;50.514;9.678;2023-11-22T08:50:59;99815.91;;;1.63;100.00
29903;BME280;30288;50.514;9.678;2023-11-22T08:53:06;99820.03;;;1.62;100.00
29903;BME280;30288;50.514;9.678;2023-11-22T08:55:11;99827.03;;;1.75;100.00
29903;BME280;30288;50.514;9.678;2023-11-22T08:57:17;99825.75;;;1.58;100.00
29903;BME280;30288;50.514;9.678;2023-11-22T08:59:20;99828.38;;;1.64;100.00
29903;BME280;30288;50.514;9.678;2023-11-22T09:01:25;99820.03;;;1.62;100.00
29903;BME280;30288;50.514;9.678;2023-11-22T09:03:30;99822.63;;;1.67;100.00
29903;BME280;30288;50.514;9.678;2023-11-22T09:05:34;99829.97;;;1.62;100.00
29903;BME280;30288;50.514;9.678;2023-11-22T09:07:42;99822.69;;;1.68;100.00
29903;BME280;30288;50.514;9.678;2023-11-22T09:09:47;99826.94;;;1.72;100.00
29903;BME280;30288;50.514;9.678;2023-11-22T09:11:50;99824.44;;;1.72;100.00
29903;BME280;30288;50.514;9.678;2023-11-22T09:13:56;99833.88;;;1.86;100.00
29903;BME280;30288;50.514;9.678;2023-11-22T09:16:03;99836.84;;;1.72;100.00
29903;BME280;30288;50.514;9.678;2023-11-22T09:18:10;99848.53;;;1.76;100.00
29903;BME280;30288;50.514;9.678;2023-11-22T09:20:16;99854.44;;;1.80;100.00
29903;BME280;30288;50.514;9.678;2023-11-22T09:22:22;99861.84;;;1.79;100.00
29903;BME280;30288;50.514;9.678;2023-11-22T09:24:27;99859.75;;;1.95;100.00
29903;BME280;30288;50.514;9.678;2023-11-22T09:26:33;99866.34;;;1.93;100.00
29903;BME280;30288;50.514;9.678;2023-11-22T09:28:39;99868.34;;;2.06;100.00
29903;BME280;30288;50.514;9.678;2023-11-22T09:30:46;99874.31;;;2.13;100.00
29903;BME280;30288;50.514;9.678;2023-11-22T09:32:52;99878.63;;;2.22;100.00
29903;BME280;30288;50.514;9.678;2023-11-22T09:34:58;99871.16;;;2.20;100.00
29903;BME280;30288;50.514;9.678;2023-11-22T09:37:03;99873.03;;;1.96;100.00
29903;BME280;30288;50.514;9.678;2023-11-22T09:39:10;99872.16;;;1.94;100.00
29903;BME280;30288;50.514;9.678;2023-11-22T09:41:18;99875.22;;;2.16;100.00
29903;BME280;30288;50.514;9.678;2023-11-22T09:43:24;99866.25;;;2.23;100.00
29903;BME280;30288;50.514;9.678;2023-11-22T09:45:31;99856.22;;;2.20;100.00
29903;BME280;30288;50.514;9.678;2023-11-22T09:47:37;99857.72;;;2.12;100.00
29903;BME280;30288;50.514;9.678;2023-11-22T09:49:44;99850.88;;;2.05;100.00
29903;BME280;30288;50.514;9.678;2023-11-22T09:51:54;99843.22;;;2.30;100.00
29903;BME280;30288;50.514;9.678;2023-11-22T09:54:05;99848.47;;;2.42;100.00
29903;BME280;30288;50.514;9.678;2023-11-22T09:56:18;99846.91;;;2.47;100.00
29903;BME280;30288;50.514;9.678;2023-11-22T09:58:24;99845.69;;;2.68;100.00
29903;BME280;30288;50.514;9.678;2023-11-22T10:00:29;99850.13;;;2.43;100.00
29903;BME280;30288;50.514;9.678;2023-11-22T10:02:34;99857.19;;;2.25;100.00
29903;BME280;30288;50.514;9.678;2023-11-22T10:04:38;99867.06;;;2.22;100.00
29903;BME280;30288;50.514;9.678;2023-11-22T10:06:43;99865.50;;;1.93;100.00
29903;BME280;30288;50.514;9.678;2023-11-22T10:08:49;99872.16;;;1.94;100.00
29903;BME280;30288;50.514;9.678;2023-11-22T10:10:55;99874.88;;;2.04;100.00
29903;BME280;30288;50.514;9.678;2023-11-22T10:13:04;99882.50;;;2.09;100.00
29903;BME280;30288;50.514;9.678;2023-11-22T10:15:17;99874.53;;;1.89;100.00
29903;BME280;30288;50.514;9.678;2023-11-22T10:17:23;99877.13;;;1.94;100.00
29903;BME280;30288;50.514;9.678;2023-11-22T10:19:28;99866.53;;;1.99;100.00
29903;BME280;30288;50.514;9.678;2023-11-22T10:21:33;99870.94;;;2.11;100.00
29903;BME280;30288;50.514;9.678;2023-11-22T10:23:40;99873.72;;;2.23;100.00
29903;BME280;30288;50.514;9.678;2023-11-22T10:25:47;99881.50;;;2.02;100.00
29903;BME280;30288;50.514;9.678;2023-11-22T10:27:57;99872.81;;;2.21;100.00
29903;BME280;30288;50.514;9.678;2023-11-22T10:30:10;99871.72;;;2.08;100.00
29903;BME280;30288;50.514;9.678;2023-11-22T10:32:17;99871.72;;;2.08;100.00
29903;BME280;30288;50.514;9.678;2023-11-22T10:34:25;99874.84;;;2.01;100.00
29903;BME280;30288;50.514;9.678;2023-11-22T10:36:31;99885.69;;;2.05;100.00
29903;BME280;30288;50.514;9.678;2023-11-22T10:38:37;99889.56;;;2.28;100.00
29903;BME280;30288;50.514;9.678;2023-11-22T10:40:43;99884.47;;;2.22;100.00
29903;BME280;30288;50.514;9.678;2023-11-22T10:42:50;99879.28;;;2.13;100.00
29903;BME280;30288;50.514;9.678;2023-11-22T10:45:01;99886.78;;;2.16;100.00
29903;BME280;30288;50.514;9.678;2023-11-22T10:47:08;99882.97;;;2.30;100.00
29903;BME280;30288;50.514;9.678;2023-11-22T10:49:14;99872.69;;;2.51;100.00
29903;BME280;30288;50.514;9.678;2023-11-22T10:51:21;99870.53;;;2.64;100.00
29903;BME280;30288;50.514;9.678;2023-11-22T10:53:32;99883.69;;;2.60;100.00
29903;BME280;30288;50.514;9.678;2023-11-22T10:55:45;99871.94;;;2.19;100.00
29903;BME280;30288;50.514;9.678;2023-11-22T10:57:54;99875.00;;;2.07;100.00
29903;BME280;30288;50.514;9.678;2023-11-22T11:00:04;99883.81;;;2.31;100.00
29903;BME280;30288;50.514;9.678;2023-11-22T11:02:16;99878.91;;;2.32;100.00
29903;BME280;30288;50.514;9.678;2023-11-22T11:04:34;99885.69;;;2.39;100.00
29903;BME280;30288;50.514;9.678;2023-11-22T11:06:48;99895.09;;;2.52;100.00
29903;BME280;30288;50.514;9.678;2023-11-22T11:08:56;99898.72;;;2.67;100.00